Columbus, Ohio
Traffic Map
Current Weather Conditions
Columbus, Ohio
Scattered Clouds
Scattered Clouds

Feels Like: 0°
Wind Chill: Ceiling: Unl
Heat Index: Visibility: 9mi
Dew Point: -3° Wind: 7mph
Humidity: 62% Direction: 330° (NNW)
Pressure: 30.03in Gusts: 0mph
Raw Report DataKCMH 262051Z 33006KT 9SM SCT041 03/M03 A3003 RMK AO2 SLP175 T00331033 56010 $
Traffic Incident Summary
Active as of:
Severity:
Category:
InformationThere was an issue retrieving the traffic information for this location. Please try a different location or try again shortly.
Advertisements
Track Severe Weather on mobile